sensor_id;sensor_type;location;lat;lon;timestamp;P1;durP1;ratioP1;P2;durP2;ratioP2
57337;SDS011;43173;50.980;18.204;2023-03-08T00:01:02;13.70;;;7.40;;
57337;SDS011;43173;50.980;18.204;2023-03-08T00:03:28;12.90;;;6.80;;
57337;SDS011;43173;50.980;18.204;2023-03-08T00:05:54;13.80;;;7.60;;
57337;SDS011;43173;50.980;18.204;2023-03-08T00:08:19;14.90;;;8.60;;
57337;SDS011;43173;50.980;18.204;2023-03-08T00:10:45;13.90;;;8.50;;
57337;SDS011;43173;50.980;18.204;2023-03-08T00:13:11;12.20;;;6.80;;
57337;SDS011;43173;50.980;18.204;2023-03-08T00:15:37;14.30;;;8.00;;
57337;SDS011;43173;50.980;18.204;2023-03-08T00:18:06;14.60;;;8.00;;
57337;SDS011;43173;50.980;18.204;2023-03-08T00:20:31;12.70;;;7.70;;
57337;SDS011;43173;50.980;18.204;2023-03-08T00:22:57;18.20;;;8.80;;
57337;SDS011;43173;50.980;18.204;2023-03-08T00:25:24;13.30;;;7.50;;
57337;SDS011;43173;50.980;18.204;2023-03-08T00:27:50;17.80;;;9.60;;
57337;SDS011;43173;50.980;18.204;2023-03-08T00:30:16;13.70;;;7.60;;
57337;SDS011;43173;50.980;18.204;2023-03-08T00:32:42;14.30;;;8.00;;
57337;SDS011;43173;50.980;18.204;2023-03-08T00:35:08;11.00;;;6.80;;
57337;SDS011;43173;50.980;18.204;2023-03-08T00:37:33;11.30;;;7.10;;
57337;SDS011;43173;50.980;18.204;2023-03-08T00:39:59;9.10;;;5.00;;
57337;SDS011;43173;50.980;18.204;2023-03-08T00:42:25;10.50;;;5.90;;
57337;SDS011;43173;50.980;18.204;2023-03-08T00:44:50;12.20;;;7.20;;
57337;SDS011;43173;50.980;18.204;2023-03-08T00:47:16;8.80;;;5.30;;
57337;SDS011;43173;50.980;18.204;2023-03-08T00:49:43;10.80;;;6.50;;
57337;SDS011;43173;50.980;18.204;2023-03-08T00:52:09;12.00;;;6.50;;
57337;SDS011;43173;50.980;18.204;2023-03-08T00:54:35;11.50;;;6.60;;
57337;SDS011;43173;50.980;18.204;2023-03-08T00:57:01;11.80;;;6.50;;
57337;SDS011;43173;50.980;18.204;2023-03-08T00:59:27;12.80;;;7.00;;
57337;SDS011;43173;50.980;18.204;2023-03-08T01:01:53;11.50;;;5.70;;
57337;SDS011;43173;50.980;18.204;2023-03-08T01:04:19;10.90;;;6.30;;
57337;SDS011;43173;50.980;18.204;2023-03-08T01:06:44;14.30;;;6.60;;
57337;SDS011;43173;50.980;18.204;2023-03-08T01:09:10;11.80;;;6.70;;
57337;SDS011;43173;50.980;18.204;2023-03-08T01:11:36;13.40;;;7.10;;
57337;SDS011;43173;50.980;18.204;2023-03-08T01:14:03;11.30;;;7.10;;
57337;SDS011;43173;50.980;18.204;2023-03-08T01:16:31;15.50;;;6.70;;
57337;SDS011;43173;50.980;18.204;2023-03-08T01:18:58;13.10;;;6.30;;
57337;SDS011;43173;50.980;18.204;2023-03-08T01:21:24;9.90;;;5.70;;
57337;SDS011;43173;50.980;18.204;2023-03-08T01:23:51;14.70;;;6.80;;
57337;SDS011;43173;50.980;18.204;2023-03-08T01:26:18;13.70;;;7.30;;
57337;SDS011;43173;50.980;18.204;2023-03-08T01:28:48;16.80;;;8.40;;
57337;SDS011;43173;50.980;18.204;2023-03-08T01:31:20;18.60;;;8.60;;
57337;SDS011;43173;50.980;18.204;2023-03-08T01:33:48;12.70;;;6.30;;
57337;SDS011;43173;50.980;18.204;2023-03-08T01:36:15;19.40;;;9.90;;
57337;SDS011;43173;50.980;18.204;2023-03-08T01:38:42;18.20;;;8.60;;
57337;SDS011;43173;50.980;18.204;2023-03-08T01:41:13;10.80;;;6.50;;
57337;SDS011;43173;50.980;18.204;2023-03-08T01:43:42;16.30;;;7.60;;
57337;SDS011;43173;50.980;18.204;2023-03-08T01:49:40;15.50;;;7.60;;
57337;SDS011;43173;50.980;18.204;2023-03-08T01:51:52;15.30;;;7.30;;
57337;SDS011;43173;50.980;18.204;2023-03-08T01:57:30;12.40;;;7.40;;
57337;SDS011;43173;50.980;18.204;2023-03-08T01:59:58;10.20;;;6.40;;
57337;SDS011;43173;50.980;18.204;2023-03-08T02:02:31;9.10;;;5.40;;
57337;SDS011;43173;50.980;18.204;2023-03-08T02:05:00;7.10;;;4.40;;
57337;SDS011;43173;50.980;18.204;2023-03-08T02:07:26;4.90;;;2.70;;
57337;SDS011;43173;50.980;18.204;2023-03-08T02:09:52;9.40;;;4.80;;
57337;SDS011;43173;50.980;18.204;2023-03-08T02:12:18;6.50;;;4.20;;
57337;SDS011;43173;50.980;18.204;2023-03-08T02:14:44;6.00;;;3.10;;
57337;SDS011;43173;50.980;18.204;2023-03-08T02:17:10;7.20;;;3.40;;
57337;SDS011;43173;50.980;18.204;2023-03-08T02:22:18;5.50;;;3.40;;
57337;SDS011;43173;50.980;18.204;2023-03-08T02:24:44;5.90;;;3.50;;
57337;SDS011;43173;50.980;18.204;2023-03-08T02:27:14;6.40;;;3.40;;
57337;SDS011;43173;50.980;18.204;2023-03-08T02:29:43;3.80;;;1.70;;
57337;SDS011;43173;50.980;18.204;2023-03-08T02:32:08;7.10;;;4.20;;
57337;SDS011;43173;50.980;18.204;2023-03-08T02:34:34;5.00;;;2.80;;
57337;SDS011;43173;50.980;18.204;2023-03-08T02:37:00;5.90;;;3.50;;
57337;SDS011;43173;50.980;18.204;2023-03-08T02:39:26;7.90;;;4.30;;
57337;SDS011;43173;50.980;18.204;2023-03-08T02:41:52;6.40;;;3.50;;
57337;SDS011;43173;50.980;18.204;2023-03-08T02:44:17;5.90;;;3.30;;
57337;SDS011;43173;50.980;18.204;2023-03-08T02:46:43;6.70;;;3.70;;
57337;SDS011;43173;50.980;18.204;2023-03-08T02:49:09;7.10;;;3.10;;
57337;SDS011;43173;50.980;18.204;2023-03-08T02:51:35;4.40;;;2.90;;
57337;SDS011;43173;50.980;18.204;2023-03-08T02:54:01;4.90;;;2.90;;
57337;SDS011;43173;50.980;18.204;2023-03-08T02:56:27;4.20;;;2.40;;
57337;SDS011;43173;50.980;18.204;2023-03-08T02:58:53;4.80;;;3.00;;
57337;SDS011;43173;50.980;18.204;2023-03-08T03:01:18;5.80;;;3.50;;
57337;SDS011;43173;50.980;18.204;2023-03-08T03:03:44;7.10;;;4.00;;
57337;SDS011;43173;50.980;18.204;2023-03-08T03:06:14;7.50;;;4.30;;
57337;SDS011;43173;50.980;18.204;2023-03-08T03:08:41;7.60;;;4.40;;
57337;SDS011;43173;50.980;18.204;2023-03-08T03:11:13;8.80;;;5.50;;
57337;SDS011;43173;50.980;18.204;2023-03-08T03:13:40;8.00;;;4.70;;
57337;SDS011;43173;50.980;18.204;2023-03-08T03:16:09;7.30;;;4.30;;
57337;SDS011;43173;50.980;18.204;2023-03-08T03:18:36;6.70;;;4.60;;
57337;SDS011;43173;50.980;18.204;2023-03-08T03:21:03;8.70;;;4.20;;
57337;SDS011;43173;50.980;18.204;2023-03-08T03:23:33;7.30;;;4.10;;
57337;SDS011;43173;50.980;18.204;2023-03-08T03:26:04;7.80;;;4.20;;
57337;SDS011;43173;50.980;18.204;2023-03-08T03:28:31;6.30;;;4.10;;
57337;SDS011;43173;50.980;18.204;2023-03-08T03:30:57;7.20;;;4.10;;
57337;SDS011;43173;50.980;18.204;2023-03-08T03:33:23;8.20;;;4.10;;
57337;SDS011;43173;50.980;18.204;2023-03-08T03:35:49;7.20;;;4.10;;
57337;SDS011;43173;50.980;18.204;2023-03-08T03:38:15;7.30;;;3.30;;
57337;SDS011;43173;50.980;18.204;2023-03-08T03:40:40;4.40;;;3.10;;
57337;SDS011;43173;50.980;18.204;2023-03-08T03:43:06;9.20;;;4.70;;
57337;SDS011;43173;50.980;18.204;2023-03-08T03:45:33;7.20;;;3.70;;
57337;SDS011;43173;50.980;18.204;2023-03-08T03:47:59;9.60;;;5.20;;
57337;SDS011;43173;50.980;18.204;2023-03-08T03:50:24;9.70;;;5.40;;
57337;SDS011;43173;50.980;18.204;2023-03-08T03:52:50;10.50;;;5.60;;
57337;SDS011;43173;50.980;18.204;2023-03-08T03:55:16;8.60;;;4.60;;
57337;SDS011;43173;50.980;18.204;2023-03-08T03:57:42;8.10;;;4.20;;
57337;SDS011;43173;50.980;18.204;2023-03-08T04:00:08;9.90;;;5.10;;
57337;SDS011;43173;50.980;18.204;2023-03-08T04:02:34;7.50;;;4.60;;
57337;SDS011;43173;50.980;18.204;2023-03-08T04:05:00;10.00;;;5.40;;
57337;SDS011;43173;50.980;18.204;2023-03-08T04:07:27;12.00;;;5.40;;
57337;SDS011;43173;50.980;18.204;2023-03-08T04:09:53;9.00;;;5.30;;
57337;SDS011;43173;50.980;18.204;2023-03-08T04:12:18;8.50;;;4.50;;
57337;SDS011;43173;50.980;18.204;2023-03-08T04:14:44;7.50;;;3.80;;
57337;SDS011;43173;50.980;18.204;2023-03-08T04:17:10;5.80;;;4.10;;
57337;SDS011;43173;50.980;18.204;2023-03-08T04:19:35;7.40;;;3.60;;
57337;SDS011;43173;50.980;18.204;2023-03-08T04:22:01;8.90;;;3.90;;
57337;SDS011;43173;50.980;18.204;2023-03-08T04:24:27;8.00;;;3.70;;
57337;SDS011;43173;50.980;18.204;2023-03-08T04:26:53;6.40;;;3.50;;
57337;SDS011;43173;50.980;18.204;2023-03-08T04:29:19;7.90;;;3.60;;
57337;SDS011;43173;50.980;18.204;2023-03-08T04:31:44;5.60;;;3.20;;
57337;SDS011;43173;50.980;18.204;2023-03-08T04:34:10;7.70;;;4.30;;
57337;SDS011;43173;50.980;18.204;2023-03-08T04:36:36;7.90;;;4.20;;
57337;SDS011;43173;50.980;18.204;2023-03-08T04:39:02;8.30;;;4.10;;
57337;SDS011;43173;50.980;18.204;2023-03-08T04:41:28;5.90;;;3.70;;
57337;SDS011;43173;50.980;18.204;2023-03-08T04:43:54;8.90;;;3.90;;
57337;SDS011;43173;50.980;18.204;2023-03-08T04:46:22;9.60;;;4.50;;
57337;SDS011;43173;50.980;18.204;2023-03-08T04:48:50;10.00;;;5.00;;
57337;SDS011;43173;50.980;18.204;2023-03-08T04:51:21;10.00;;;5.10;;
57337;SDS011;43173;50.980;18.204;2023-03-08T04:53:48;7.30;;;4.50;;
57337;SDS011;43173;50.980;18.204;2023-03-08T04:56:14;7.80;;;4.20;;
57337;SDS011;43173;50.980;18.204;2023-03-08T04:58:41;8.60;;;4.70;;
57337;SDS011;43173;50.980;18.204;2023-03-08T05:01:08;9.90;;;4.10;;
57337;SDS011;43173;50.980;18.204;2023-03-08T05:03:34;6.00;;;3.60;;
57337;SDS011;43173;50.980;18.204;2023-03-08T05:06:00;5.70;;;3.30;;
57337;SDS011;43173;50.980;18.204;2023-03-08T05:08:26;7.50;;;3.90;;
57337;SDS011;43173;50.980;18.204;2023-03-08T05:10:55;3.70;;;2.30;;
57337;SDS011;43173;50.980;18.204;2023-03-08T05:13:22;7.10;;;3.80;;
57337;SDS011;43173;50.980;18.204;2023-03-08T05:15:49;11.20;;;6.10;;
57337;SDS011;43173;50.980;18.204;2023-03-08T05:18:14;11.80;;;7.80;;
57337;SDS011;43173;50.980;18.204;2023-03-08T05:20:40;18.80;;;11.80;;
57337;SDS011;43173;50.980;18.204;2023-03-08T05:23:06;18.10;;;11.10;;
57337;SDS011;43173;50.980;18.204;2023-03-08T05:25:31;23.80;;;15.10;;
57337;SDS011;43173;50.980;18.204;2023-03-08T05:27:58;20.50;;;13.30;;
57337;SDS011;43173;50.980;18.204;2023-03-08T05:30:24;11.30;;;6.40;;
57337;SDS011;43173;50.980;18.204;2023-03-08T05:32:51;13.10;;;7.80;;
57337;SDS011;43173;50.980;18.204;2023-03-08T05:35:16;26.10;;;15.70;;
57337;SDS011;43173;50.980;18.204;2023-03-08T05:37:42;23.30;;;15.00;;
57337;SDS011;43173;50.980;18.204;2023-03-08T05:40:08;14.80;;;9.20;;
57337;SDS011;43173;50.980;18.204;2023-03-08T05:42:35;15.30;;;8.30;;
57337;SDS011;43173;50.980;18.204;2023-03-08T05:45:00;12.00;;;6.30;;
57337;SDS011;43173;50.980;18.204;2023-03-08T05:47:26;10.40;;;6.10;;
57337;SDS011;43173;50.980;18.204;2023-03-08T05:49:53;12.20;;;6.30;;
57337;SDS011;43173;50.980;18.204;2023-03-08T05:52:19;13.30;;;6.60;;
57337;SDS011;43173;50.980;18.204;2023-03-08T05:54:45;15.20;;;7.30;;
57337;SDS011;43173;50.980;18.204;2023-03-08T05:57:10;22.30;;;9.30;;
57337;SDS011;43173;50.980;18.204;2023-03-08T05:59:36;23.40;;;9.40;;
57337;SDS011;43173;50.980;18.204;2023-03-08T06:02:02;42.90;;;12.70;;
57337;SDS011;43173;50.980;18.204;2023-03-08T06:04:27;40.20;;;13.20;;
57337;SDS011;43173;50.980;18.204;2023-03-08T06:06:53;28.80;;;9.80;;
57337;SDS011;43173;50.980;18.204;2023-03-08T06:09:19;15.80;;;5.90;;
57337;SDS011;43173;50.980;18.204;2023-03-08T06:11:44;10.20;;;4.90;;
57337;SDS011;43173;50.980;18.204;2023-03-08T06:14:10;13.90;;;6.20;;
57337;SDS011;43173;50.980;18.204;2023-03-08T06:16:36;26.20;;;8.80;;
57337;SDS011;43173;50.980;18.204;2023-03-08T06:19:02;42.00;;;14.40;;
57337;SDS011;43173;50.980;18.204;2023-03-08T06:21:27;44.30;;;13.00;;
57337;SDS011;43173;50.980;18.204;2023-03-08T06:23:53;29.30;;;10.20;;
57337;SDS011;43173;50.980;18.204;2023-03-08T06:26:19;40.60;;;11.50;;
57337;SDS011;43173;50.980;18.204;2023-03-08T06:28:44;22.00;;;6.60;;
57337;SDS011;43173;50.980;18.204;2023-03-08T06:31:11;17.00;;;6.90;;
57337;SDS011;43173;50.980;18.204;2023-03-08T06:33:38;12.60;;;6.10;;
57337;SDS011;43173;50.980;18.204;2023-03-08T06:36:05;11.90;;;5.90;;
57337;SDS011;43173;50.980;18.204;2023-03-08T06:38:34;16.10;;;7.00;;
57337;SDS011;43173;50.980;18.204;2023-03-08T06:41:01;16.70;;;7.60;;
57337;SDS011;43173;50.980;18.204;2023-03-08T06:43:27;12.80;;;6.40;;
57337;SDS011;43173;50.980;18.204;2023-03-08T06:45:53;15.90;;;6.40;;
57337;SDS011;43173;50.980;18.204;2023-03-08T06:48:19;12.40;;;5.50;;
57337;SDS011;43173;50.980;18.204;2023-03-08T06:50:45;16.50;;;7.10;;
57337;SDS011;43173;50.980;18.204;2023-03-08T06:53:11;18.60;;;7.60;;
57337;SDS011;43173;50.980;18.204;2023-03-08T06:55:38;18.50;;;6.60;;
57337;SDS011;43173;50.980;18.204;2023-03-08T06:58:05;14.70;;;5.60;;
57337;SDS011;43173;50.980;18.204;2023-03-08T07:00:31;12.30;;;5.20;;
57337;SDS011;43173;50.980;18.204;2023-03-08T07:02:57;10.20;;;4.10;;
57337;SDS011;43173;50.980;18.204;2023-03-08T07:05:24;11.80;;;5.00;;
57337;SDS011;43173;50.980;18.204;2023-03-08T07:07:50;14.20;;;6.50;;
57337;SDS011;43173;50.980;18.204;2023-03-08T07:10:16;12.60;;;5.20;;
57337;SDS011;43173;50.980;18.204;2023-03-08T07:12:45;14.20;;;5.00;;
57337;SDS011;43173;50.980;18.204;2023-03-08T07:15:14;16.20;;;5.50;;
57337;SDS011;43173;50.980;18.204;2023-03-08T07:17:41;7.90;;;4.00;;
57337;SDS011;43173;50.980;18.204;2023-03-08T07:20:08;13.60;;;4.80;;
57337;SDS011;43173;50.980;18.204;2023-03-08T07:22:35;10.60;;;4.90;;
57337;SDS011;43173;50.980;18.204;2023-03-08T07:25:00;24.20;;;8.20;;
57337;SDS011;43173;50.980;18.204;2023-03-08T07:27:26;10.80;;;5.00;;
57337;SDS011;43173;50.980;18.204;2023-03-08T07:29:52;9.90;;;4.30;;
57337;SDS011;43173;50.980;18.204;2023-03-08T07:32:17;12.20;;;5.30;;
57337;SDS011;43173;50.980;18.204;2023-03-08T07:34:43;11.10;;;5.30;;
57337;SDS011;43173;50.980;18.204;2023-03-08T07:37:12;10.90;;;4.90;;
57337;SDS011;43173;50.980;18.204;2023-03-08T07:39:39;4.60;;;2.90;;
57337;SDS011;43173;50.980;18.204;2023-03-08T07:42:05;7.20;;;4.40;;
57337;SDS011;43173;50.980;18.204;2023-03-08T07:44:31;10.80;;;4.50;;
57337;SDS011;43173;50.980;18.204;2023-03-08T07:46:57;11.30;;;5.10;;
57337;SDS011;43173;50.980;18.204;2023-03-08T07:49:22;7.00;;;3.50;;
57337;SDS011;43173;50.980;18.204;2023-03-08T07:51:48;6.30;;;3.70;;
57337;SDS011;43173;50.980;18.204;2023-03-08T07:54:17;7.60;;;3.90;;
57337;SDS011;43173;50.980;18.204;2023-03-08T07:56:43;8.00;;;4.10;;
57337;SDS011;43173;50.980;18.204;2023-03-08T07:59:09;16.40;;;7.10;;
57337;SDS011;43173;50.980;18.204;2023-03-08T08:01:34;9.50;;;4.20;;
57337;SDS011;43173;50.980;18.204;2023-03-08T08:04:00;11.00;;;5.90;;
57337;SDS011;43173;50.980;18.204;2023-03-08T08:06:26;11.80;;;5.60;;
57337;SDS011;43173;50.980;18.204;2023-03-08T08:08:55;13.70;;;6.40;;
57337;SDS011;43173;50.980;18.204;2023-03-08T08:11:21;16.20;;;6.50;;
57337;SDS011;43173;50.980;18.204;2023-03-08T08:13:48;12.90;;;4.50;;
57337;SDS011;43173;50.980;18.204;2023-03-08T08:16:13;20.00;;;9.80;;
57337;SDS011;43173;50.980;18.204;2023-03-08T08:18:40;22.70;;;9.60;;
57337;SDS011;43173;50.980;18.204;2023-03-08T08:21:07;26.00;;;11.90;;
57337;SDS011;43173;50.980;18.204;2023-03-08T08:23:37;16.30;;;9.10;;
57337;SDS011;43173;50.980;18.204;2023-03-08T08:26:05;15.10;;;7.60;;
57337;SDS011;43173;50.980;18.204;2023-03-08T08:28:32;23.00;;;10.50;;
57337;SDS011;43173;50.980;18.204;2023-03-08T08:31:02;21.10;;;9.00;;
57337;SDS011;43173;50.980;18.204;2023-03-08T08:33:31;18.10;;;8.20;;
57337;SDS011;43173;50.980;18.204;2023-03-08T08:35:58;23.10;;;10.10;;
57337;SDS011;43173;50.980;18.204;2023-03-08T08:38:24;20.00;;;8.80;;
57337;SDS011;43173;50.980;18.204;2023-03-08T08:40:50;14.60;;;7.80;;
57337;SDS011;43173;50.980;18.204;2023-03-08T08:43:17;14.10;;;6.70;;
57337;SDS011;43173;50.980;18.204;2023-03-08T08:45:47;21.40;;;9.80;;
57337;SDS011;43173;50.980;18.204;2023-03-08T08:48:17;19.50;;;8.70;;
57337;SDS011;43173;50.980;18.204;2023-03-08T08:50:43;19.70;;;11.00;;
57337;SDS011;43173;50.980;18.204;2023-03-08T08:53:08;36.60;;;13.60;;
57337;SDS011;43173;50.980;18.204;2023-03-08T08:55:35;19.10;;;8.50;;
57337;SDS011;43173;50.980;18.204;2023-03-08T08:58:01;29.00;;;15.20;;
57337;SDS011;43173;50.980;18.204;2023-03-08T09:00:28;20.40;;;11.00;;
57337;SDS011;43173;50.980;18.204;2023-03-08T09:02:54;17.80;;;8.10;;
57337;SDS011;43173;50.980;18.204;2023-03-08T09:05:20;12.20;;;7.10;;
57337;SDS011;43173;50.980;18.204;2023-03-08T09:07:46;18.70;;;7.60;;
57337;SDS011;43173;50.980;18.204;2023-03-08T09:10:11;22.00;;;9.40;;
57337;SDS011;43173;50.980;18.204;2023-03-08T09:12:37;11.40;;;4.60;;
57337;SDS011;43173;50.980;18.204;2023-03-08T09:15:03;13.50;;;6.30;;
57337;SDS011;43173;50.980;18.204;2023-03-08T09:17:30;15.70;;;8.30;;
57337;SDS011;43173;50.980;18.204;2023-03-08T09:19:57;10.80;;;7.00;;
57337;SDS011;43173;50.980;18.204;2023-03-08T09:22:25;11.60;;;6.10;;
57337;SDS011;43173;50.980;18.204;2023-03-08T09:24:51;14.60;;;7.40;;
57337;SDS011;43173;50.980;18.204;2023-03-08T09:27:17;17.10;;;8.40;;
57337;SDS011;43173;50.980;18.204;2023-03-08T09:29:42;14.40;;;7.80;;
57337;SDS011;43173;50.980;18.204;2023-03-08T09:32:08;18.40;;;8.20;;
57337;SDS011;43173;50.980;18.204;2023-03-08T09:34:34;13.80;;;7.70;;
57337;SDS011;43173;50.980;18.204;2023-03-08T09:37:00;10.50;;;6.30;;
57337;SDS011;43173;50.980;18.204;2023-03-08T09:39:25;13.70;;;7.00;;
57337;SDS011;43173;50.980;18.204;2023-03-08T09:41:55;13.80;;;7.40;;
57337;SDS011;43173;50.980;18.204;2023-03-08T09:57:53;18.30;;;7.30;;
57337;SDS011;43173;50.980;18.204;2023-03-08T10:00:22;16.20;;;6.40;;
57337;SDS011;43173;50.980;18.204;2023-03-08T10:10:58;8.70;;;5.20;;
57337;SDS011;43173;50.980;18.204;2023-03-08T10:18:41;8.20;;;5.30;;
57337;SDS011;43173;50.980;18.204;2023-03-08T10:21:12;9.00;;;5.90;;
57337;SDS011;43173;50.980;18.204;2023-03-08T10:23:43;11.30;;;6.70;;
57337;SDS011;43173;50.980;18.204;2023-03-08T10:26:11;9.20;;;6.60;;
57337;SDS011;43173;50.980;18.204;2023-03-08T10:28:38;9.10;;;5.80;;
57337;SDS011;43173;50.980;18.204;2023-03-08T10:31:13;10.10;;;5.60;;
57337;SDS011;43173;50.980;18.204;2023-03-08T10:33:43;8.90;;;6.30;;
57337;SDS011;43173;50.980;18.204;2023-03-08T10:38:56;10.80;;;5.60;;
57337;SDS011;43173;50.980;18.204;2023-03-08T10:41:28;9.70;;;6.10;;
57337;SDS011;43173;50.980;18.204;2023-03-08T10:43:57;10.80;;;6.60;;
57337;SDS011;43173;50.980;18.204;2023-03-08T10:46:25;9.70;;;5.80;;
57337;SDS011;43173;50.980;18.204;2023-03-08T10:48:52;8.70;;;5.10;;
57337;SDS011;43173;50.980;18.204;2023-03-08T10:51:22;15.90;;;6.90;;
57337;SDS011;43173;50.980;18.204;2023-03-08T10:53:53;17.60;;;7.80;;
57337;SDS011;43173;50.980;18.204;2023-03-08T10:56:24;11.60;;;6.70;;
57337;SDS011;43173;50.980;18.204;2023-03-08T10:58:55;13.10;;;6.00;;
57337;SDS011;43173;50.980;18.204;2023-03-08T11:04:16;12.40;;;6.00;;
57337;SDS011;43173;50.980;18.204;2023-03-08T11:06:43;10.90;;;6.00;;
57337;SDS011;43173;50.980;18.204;2023-03-08T11:11:58;11.70;;;6.30;;
57337;SDS011;43173;50.980;18.204;2023-03-08T11:14:25;9.30;;;5.20;;
57337;SDS011;43173;50.980;18.204;2023-03-08T11:19:31;11.50;;;5.60;;
57337;SDS011;43173;50.980;18.204;2023-03-08T11:35:13;27.70;;;12.00;;
57337;SDS011;43173;50.980;18.204;2023-03-08T11:57:39;44.70;;;15.60;;
57337;SDS011;43173;50.980;18.204;2023-03-08T12:02:56;24.00;;;11.50;;
57337;SDS011;43173;50.980;18.204;2023-03-08T12:05:28;17.60;;;8.60;;
57337;SDS011;43173;50.980;18.204;2023-03-08T12:27:13;13.80;;;8.70;;
57337;SDS011;43173;50.980;18.204;2023-03-08T12:32:37;16.50;;;10.20;;
57337;SDS011;43173;50.980;18.204;2023-03-08T12:35:05;17.20;;;8.70;;
57337;SDS011;43173;50.980;18.204;2023-03-08T12:37:53;13.20;;;8.20;;
57337;SDS011;43173;50.980;18.204;2023-03-08T12:43:12;16.00;;;9.10;;
57337;SDS011;43173;50.980;18.204;2023-03-08T12:54:00;26.10;;;11.20;;
57337;SDS011;43173;50.980;18.204;2023-03-08T12:59:23;16.10;;;9.20;;
57337;SDS011;43173;50.980;18.204;2023-03-08T13:07:02;12.00;;;7.60;;
57337;SDS011;43173;50.980;18.204;2023-03-08T13:09:51;12.30;;;8.20;;
57337;SDS011;43173;50.980;18.204;2023-03-08T13:12:22;14.40;;;8.60;;
57337;SDS011;43173;50.980;18.204;2023-03-08T13:17:40;14.10;;;9.10;;
57337;SDS011;43173;50.980;18.204;2023-03-08T13:22:44;10.90;;;7.50;;
57337;SDS011;43173;50.980;18.204;2023-03-08T13:25:59;15.40;;;8.80;;
57337;SDS011;43173;50.980;18.204;2023-03-08T13:30:31;18.90;;;9.70;;
57337;SDS011;43173;50.980;18.204;2023-03-08T13:32:59;17.20;;;10.20;;
57337;SDS011;43173;50.980;18.204;2023-03-08T13:35:25;18.90;;;10.90;;
57337;SDS011;43173;50.980;18.204;2023-03-08T13:37:52;16.90;;;10.00;;
57337;SDS011;43173;50.980;18.204;2023-03-08T13:40:20;17.00;;;10.90;;
57337;SDS011;43173;50.980;18.204;2023-03-08T13:45:29;19.90;;;10.90;;
57337;SDS011;43173;50.980;18.204;2023-03-08T13:47:56;19.50;;;10.80;;
57337;SDS011;43173;50.980;18.204;2023-03-08T13:50:30;18.80;;;9.80;;
57337;SDS011;43173;50.980;18.204;2023-03-08T13:52:59;16.70;;;9.30;;
57337;SDS011;43173;50.980;18.204;2023-03-08T13:55:27;19.90;;;10.40;;
57337;SDS011;43173;50.980;18.204;2023-03-08T13:57:57;19.70;;;11.10;;
57337;SDS011;43173;50.980;18.204;2023-03-08T14:00:30;16.20;;;9.70;;
57337;SDS011;43173;50.980;18.204;2023-03-08T14:02:57;20.50;;;11.20;;
57337;SDS011;43173;50.980;18.204;2023-03-08T14:05:26;18.80;;;10.30;;
57337;SDS011;43173;50.980;18.204;2023-03-08T14:08:00;16.70;;;9.70;;
57337;SDS011;43173;50.980;18.204;2023-03-08T14:10:34;19.60;;;9.70;;
57337;SDS011;43173;50.980;18.204;2023-03-08T14:13:01;17.10;;;9.00;;
57337;SDS011;43173;50.980;18.204;2023-03-08T14:15:28;21.50;;;9.90;;
57337;SDS011;43173;50.980;18.204;2023-03-08T14:17:55;16.40;;;9.10;;
57337;SDS011;43173;50.980;18.204;2023-03-08T14:20:22;16.40;;;9.10;;
57337;SDS011;43173;50.980;18.204;2023-03-08T14:22:50;19.50;;;9.80;;
57337;SDS011;43173;50.980;18.204;2023-03-08T14:25:22;26.10;;;11.50;;
57337;SDS011;43173;50.980;18.204;2023-03-08T14:27:53;18.80;;;9.40;;
57337;SDS011;43173;50.980;18.204;2023-03-08T14:30:20;26.40;;;11.10;;
57337;SDS011;43173;50.980;18.204;2023-03-08T14:35:26;19.50;;;10.30;;
57337;SDS011;43173;50.980;18.204;2023-03-08T14:37:54;29.30;;;14.30;;
57337;SDS011;43173;50.980;18.204;2023-03-08T14:40:25;23.80;;;14.10;;
57337;SDS011;43173;50.980;18.204;2023-03-08T14:43:03;22.30;;;12.00;;
57337;SDS011;43173;50.980;18.204;2023-03-08T14:50:55;26.00;;;12.80;;
57337;SDS011;43173;50.980;18.204;2023-03-08T14:53:37;20.20;;;10.50;;
57337;SDS011;43173;50.980;18.204;2023-03-08T14:56:11;23.20;;;12.70;;
57337;SDS011;43173;50.980;18.204;2023-03-08T14:58:40;23.30;;;10.30;;
57337;SDS011;43173;50.980;18.204;2023-03-08T15:01:07;20.10;;;10.90;;
57337;SDS011;43173;50.980;18.204;2023-03-08T15:03:33;18.00;;;9.10;;
57337;SDS011;43173;50.980;18.204;2023-03-08T15:06:05;21.10;;;9.60;;
57337;SDS011;43173;50.980;18.204;2023-03-08T15:08:41;19.60;;;9.70;;
57337;SDS011;43173;50.980;18.204;2023-03-08T15:11:07;22.70;;;12.70;;
57337;SDS011;43173;50.980;18.204;2023-03-08T15:13:32;22.70;;;11.10;;
57337;SDS011;43173;50.980;18.204;2023-03-08T15:15:58;20.60;;;10.40;;
57337;SDS011;43173;50.980;18.204;2023-03-08T15:18:24;18.90;;;10.40;;
57337;SDS011;43173;50.980;18.204;2023-03-08T15:20:50;20.10;;;11.50;;
57337;SDS011;43173;50.980;18.204;2023-03-08T15:23:26;24.00;;;14.00;;
57337;SDS011;43173;50.980;18.204;2023-03-08T15:25:53;35.90;;;17.30;;
57337;SDS011;43173;50.980;18.204;2023-03-08T15:28:19;35.30;;;18.10;;
57337;SDS011;43173;50.980;18.204;2023-03-08T15:30:46;26.30;;;14.00;;
57337;SDS011;43173;50.980;18.204;2023-03-08T15:33:13;32.00;;;17.00;;
57337;SDS011;43173;50.980;18.204;2023-03-08T15:35:39;48.40;;;27.90;;
57337;SDS011;43173;50.980;18.204;2023-03-08T15:38:05;36.00;;;20.10;;
57337;SDS011;43173;50.980;18.204;2023-03-08T15:40:31;45.00;;;22.50;;
57337;SDS011;43173;50.980;18.204;2023-03-08T15:42:58;64.80;;;26.00;;
57337;SDS011;43173;50.980;18.204;2023-03-08T15:45:23;49.70;;;20.30;;
57337;SDS011;43173;50.980;18.204;2023-03-08T15:50:22;31.40;;;13.20;;
57337;SDS011;43173;50.980;18.204;2023-03-08T15:52:48;28.60;;;14.60;;
57337;SDS011;43173;50.980;18.204;2023-03-08T15:55:14;34.00;;;16.20;;
57337;SDS011;43173;50.980;18.204;2023-03-08T15:57:40;38.90;;;18.10;;
57337;SDS011;43173;50.980;18.204;2023-03-08T16:00:07;36.10;;;18.30;;
57337;SDS011;43173;50.980;18.204;2023-03-08T16:02:36;35.40;;;17.40;;
57337;SDS011;43173;50.980;18.204;2023-03-08T16:05:03;32.90;;;17.70;;
57337;SDS011;43173;50.980;18.204;2023-03-08T16:07:30;46.60;;;21.90;;
57337;SDS011;43173;50.980;18.204;2023-03-08T16:09:56;112.80;;;36.30;;
57337;SDS011;43173;50.980;18.204;2023-03-08T16:12:22;88.00;;;30.90;;
57337;SDS011;43173;50.980;18.204;2023-03-08T16:14:48;96.60;;;33.90;;
57337;SDS011;43173;50.980;18.204;2023-03-08T16:17:15;61.50;;;23.60;;
57337;SDS011;43173;50.980;18.204;2023-03-08T16:19:42;49.90;;;22.00;;
57337;SDS011;43173;50.980;18.204;2023-03-08T16:22:08;37.60;;;18.10;;
57337;SDS011;43173;50.980;18.204;2023-03-08T16:24:34;33.30;;;16.00;;
57337;SDS011;43173;50.980;18.204;2023-03-08T16:27:00;30.40;;;14.70;;
57337;SDS011;43173;50.980;18.204;2023-03-08T16:29:29;29.40;;;15.60;;
57337;SDS011;43173;50.980;18.204;2023-03-08T16:31:55;25.70;;;12.70;;
57337;SDS011;43173;50.980;18.204;2023-03-08T16:34:25;28.50;;;13.70;;
57337;SDS011;43173;50.980;18.204;2023-03-08T16:36:52;20.80;;;11.60;;
57337;SDS011;43173;50.980;18.204;2023-03-08T16:39:18;24.70;;;12.20;;
57337;SDS011;43173;50.980;18.204;2023-03-08T16:41:44;24.30;;;12.80;;
57337;SDS011;43173;50.980;18.204;2023-03-08T16:46:53;22.90;;;11.70;;
57337;SDS011;43173;50.980;18.204;2023-03-08T16:49:19;24.60;;;11.30;;